Time;durP1;ratioP1;P1;durP2;ratioP2;P2;SDS_P1;SDS_P2;PMS_P1;PMS_P2;Temp;Humidity;BMP_temperature;BMP_pressure;BME280_temperature;BME280_humidity;BME280_pressure;Samples;Min_cycle;Max_cycle;Signal;HPM_P1;HPM_P2
2022/08/11 00:00:47;;;;;;;6.13;3.40;;;;;;;;;;5053020;28;19908;-60
2022/08/11 00:03:13;;;;;;;7.78;4.10;;;;;;;;;;5053359;28;20525;-60
2022/08/11 00:05:49;;;;;;;3.83;3.15;;;;;;;;;;5053273;28;20037;-60
2022/08/11 00:08:22;;;;;;;8.82;4.25;;;;;;;;;;5052969;28;20503;-60
2022/08/11 00:11:05;;;;;;;9.57;4.75;;;;;;;;;;5053297;28;20434;-60
2022/08/11 00:13:32;;;;;;;4.85;3.92;;;;;;;;;;5053525;28;20037;-61
2022/08/11 00:15:57;;;;;;;7.93;4.65;;;;;;;;;;5053137;28;20028;-61
2022/08/11 00:18:23;;;;;;;8.25;5.45;;;;;;;;;;5055819;28;20025;-60
2022/08/11 00:20:49;;;;;;;11.13;6.38;;;;;;;;;;5056781;28;20045;-60
2022/08/11 00:23:15;;;;;;;10.93;6.75;;;;;;;;;;5056887;28;20059;-61
2022/08/11 00:25:42;;;;;;;9.73;5.97;;;;;;;;;;5056794;28;20107;-65
2022/08/11 00:28:26;;;;;;;7.32;4.50;;;;;;;;;;5055075;28;20029;-66
2022/08/11 00:30:52;;;;;;;3.85;3.17;;;;;;;;;;5056539;28;20037;-60
2022/08/11 00:33:19;;;;;;;3.40;3.00;;;;;;;;;;5056908;28;20423;-60
2022/08/11 00:35:45;;;;;;;3.53;2.90;;;;;;;;;;5056465;28;20029;-60
2022/08/11 00:38:11;;;;;;;6.82;4.15;;;;;;;;;;5056251;28;20101;-61
2022/08/11 00:40:37;;;;;;;8.25;4.40;;;;;;;;;;5056376;28;20033;-61
2022/08/11 00:43:11;;;;;;;4.88;3.25;;;;;;;;;;5056327;28;20020;-60
2022/08/11 00:45:45;;;;;;;6.18;4.43;;;;;;;;;;5056293;28;20079;-61
2022/08/11 00:48:34;;;;;;;10.13;4.72;;;;;;;;;;5055973;28;20043;-60
2022/08/11 00:51:05;;;;;;;8.32;4.70;;;;;;;;;;5017851;28;20049;-61
2022/08/11 00:53:50;;;;;;;7.63;4.22;;;;;;;;;;5055898;28;20055;-60
2022/08/11 00:56:28;;;;;;;6.63;4.13;;;;;;;;;;5056149;28;20040;-60
2022/08/11 00:59:06;;;;;;;6.68;4.20;;;;;;;;;;5056253;28;20040;-60
2022/08/11 01:01:47;;;;;;;7.43;4.55;;;;;;;;;;5056399;28;20028;-61
2022/08/11 01:04:23;;;;;;;5.05;3.75;;;;;;;;;;5055839;28;20120;-60
2022/08/11 01:07:06;;;;;;;5.10;3.75;;;;;;;;;;5056007;28;20082;-61
2022/08/11 01:09:50;;;;;;;6.50;4.25;;;;;;;;;;5056000;28;20044;-61
2022/08/11 01:12:31;;;;;;;7.05;4.25;;;;;;;;;;5055832;28;20028;-60
2022/08/11 01:15:00;;;;;;;4.05;3.58;;;;;;;;;;5054188;28;20033;-61
2022/08/11 01:17:25;;;;;;;5.50;3.88;;;;;;;;;;5055859;28;20013;-60
2022/08/11 01:19:51;;;;;;;4.70;3.80;;;;;;;;;;5054061;28;20501;-61
2022/08/11 01:22:35;;;;;;;8.10;3.90;;;;;;;;;;5055681;28;20028;-60
2022/08/11 01:25:24;;;;;;;6.35;3.33;;;;;;;;;;5055532;28;20037;-64
2022/08/11 01:27:52;;;;;;;2.90;2.70;;;;;;;;;;5055817;28;20021;-65
2022/08/11 01:30:20;;;;;;;3.85;3.17;;;;;;;;;;5055244;28;20440;-65
2022/08/11 01:33:04;;;;;;;4.75;3.70;;;;;;;;;;5055586;28;20033;-65
2022/08/11 01:35:48;;;;;;;4.22;3.13;;;;;;;;;;5055093;28;20366;-60
2022/08/11 01:38:26;;;;;;;4.60;2.83;;;;;;;;;;5055078;28;20047;-64
2022/08/11 01:40:54;;;;;;;3.63;2.80;;;;;;;;;;5055499;28;20021;-65
2022/08/11 01:46:16;;;;;;;4.20;2.40;;;;;;;;;;5055566;28;20041;-65
2022/08/11 01:48:47;;;;;;;3.70;2.35;;;;;;;;;;5055225;28;20028;-65
2022/08/11 01:51:17;;;;;;;2.78;2.58;;;;;;;;;;5054863;28;20049;-60
2022/08/11 01:54:00;;;;;;;2.63;2.30;;;;;;;;;;5053667;28;20047;-60
2022/08/11 01:56:44;;;;;;;3.42;3.13;;;;;;;;;;5054602;28;20388;-64
2022/08/11 01:59:13;;;;;;;5.85;3.10;;;;;;;;;;5053784;28;20033;-64
2022/08/11 02:01:50;;;;;;;3.38;2.55;;;;;;;;;;5055261;28;20017;-64
2022/08/11 02:04:35;;;;;;;3.00;2.72;;;;;;;;;;5054895;28;20104;-65
2022/08/11 02:07:01;;;;;;;3.42;2.85;;;;;;;;;;5053191;28;20033;-65
2022/08/11 02:09:40;;;;;;;3.20;2.90;;;;;;;;;;5054881;28;20020;-65
2022/08/11 02:12:14;;;;;;;5.25;2.90;;;;;;;;;;5054535;28;20043;-65
2022/08/11 02:14:48;;;;;;;3.30;3.00;;;;;;;;;;5054364;28;20489;-65
2022/08/11 02:17:16;;;;;;;3.78;2.85;;;;;;;;;;5054712;28;20116;-65
2022/08/11 02:25:28;;;;;;;2.90;2.70;;;;;;;;;;5054335;28;20033;-60
2022/08/11 02:28:14;;;;;;;3.60;2.53;;;;;;;;;;5053001;28;20473;-60
2022/08/11 02:33:21;;;;;;;2.67;2.47;;;;;;;;;;5040785;28;20421;-65
2022/08/11 02:33:40;;;;;;;2.55;2.33;;;;;;;;;;5054311;28;20051;-61
2022/08/11 02:36:26;;;;;;;2.90;2.42;;;;;;;;;;5054202;28;20025;-61
2022/08/11 02:39:08;;;;;;;3.67;2.20;;;;;;;;;;5054063;28;20021;-60
2022/08/11 02:45:30;;;;;;;2.28;1.98;;;;;;;;;;4992761;28;20026;-61
2022/08/11 02:51:16;;;;;;;2.38;2.20;;;;;;;;;;5054276;28;20119;-61
2022/08/11 02:53:53;;;;;;;3.78;2.00;;;;;;;;;;5043038;28;20382;-61
2022/08/11 02:56:37;;;;;;;2.42;2.22;;;;;;;;;;5054122;28;20029;-60
2022/08/11 03:01:57;;;;;;;4.07;2.38;;;;;;;;;;5053207;28;20512;-65
2022/08/11 03:04:30;;;;;;;3.85;2.72;;;;;;;;;;5053138;28;20013;-60
2022/08/11 03:07:02;;;;;;;3.33;2.38;;;;;;;;;;5049782;28;20028;-60
2022/08/11 03:09:47;;;;;;;3.45;2.45;;;;;;;;;;5053081;28;20377;-60
2022/08/11 03:18:02;;;;;;;3.20;2.20;;;;;;;;;;5053090;28;20384;-60
2022/08/11 03:20:44;;;;;;;2.58;2.25;;;;;;;;;;5052909;28;20075;-60
2022/08/11 03:23:22;;;;;;;2.50;2.30;;;;;;;;;;5051763;28;20028;-61
2022/08/11 03:25:50;;;;;;;2.40;2.10;;;;;;;;;;5052946;28;20025;-61
2022/08/11 03:28:27;;;;;;;2.58;2.30;;;;;;;;;;5052971;28;20017;-64
2022/08/11 03:30:56;;;;;;;2.22;2.08;;;;;;;;;;5050418;28;20096;-61
2022/08/11 03:34:03;;;;;;;2.00;1.90;;;;;;;;;;5052082;28;20041;-60
2022/08/11 03:36:43;;;;;;;2.22;2.03;;;;;;;;;;5051384;28;20043;-64
2022/08/11 03:39:27;;;;;;;2.22;2.13;;;;;;;;;;5051628;28;20104;-64
2022/08/11 03:42:19;;;;;;;2.00;1.90;;;;;;;;;;5050477;28;20121;-65
2022/08/11 03:44:47;;;;;;;2.47;2.17;;;;;;;;;;5052696;28;20048;-64
2022/08/11 03:47:32;;;;;;;1.95;1.80;;;;;;;;;;5053191;28;20467;-65
2022/08/11 03:50:27;;;;;;;2.40;1.80;;;;;;;;;;5053303;28;20530;-65
2022/08/11 03:52:55;;;;;;;4.88;1.92;;;;;;;;;;5000990;28;20112;-67
2022/08/11 03:55:26;;;;;;;2.55;2.00;;;;;;;;;;5056753;28;20088;-68
2022/08/11 03:58:08;;;;;;;2.13;1.92;;;;;;;;;;5056699;28;20025;-68
2022/08/11 04:00:53;;;;;;;1.95;1.85;;;;;;;;;;5056440;28;20028;-68
2022/08/11 04:03:19;;;;;;;2.22;2.13;;;;;;;;;;5056515;28;20040;-68
2022/08/11 04:06:06;;;;;;;4.15;2.10;;;;;;;;;;5056612;28;20021;-70
2022/08/11 04:08:34;;;;;;;1.92;1.83;;;;;;;;;;5056399;28;20079;-69
2022/08/11 04:11:05;;;;;;;2.33;2.10;;;;;;;;;;5056440;28;20530;-69
2022/08/11 04:13:34;;;;;;;2.33;2.10;;;;;;;;;;5057142;28;20047;-69
2022/08/11 04:16:05;;;;;;;4.07;2.53;;;;;;;;;;5055684;28;20162;-69
2022/08/11 04:18:45;;;;;;;2.53;2.42;;;;;;;;;;5054776;28;20029;-69
2022/08/11 04:21:16;;;;;;;2.85;2.30;;;;;;;;;;5055972;28;20024;-69
2022/08/11 04:24:03;;;;;;;2.60;2.20;;;;;;;;;;5056660;28;20093;-69
2022/08/11 04:26:47;;;;;;;2.33;2.15;;;;;;;;;;5054285;28;20396;-69
2022/08/11 04:29:27;;;;;;;2.15;1.92;;;;;;;;;;5036621;28;20033;-69
2022/08/11 04:32:03;;;;;;;2.53;2.13;;;;;;;;;;5053294;28;20029;-69
2022/08/11 04:34:44;;;;;;;2.58;2.38;;;;;;;;;;5037314;28;20037;-69
2022/08/11 04:37:33;;;;;;;5.35;2.20;;;;;;;;;;5053161;28;20064;-69
2022/08/11 04:39:58;;;;;;;2.72;2.53;;;;;;;;;;5036193;28;20511;-69
2022/08/11 04:45:52;;;;;;;2.40;2.30;;;;;;;;;;5054776;28;20025;-69
2022/08/11 05:03:00;;;;;;;3.42;3.13;;;;;;;;;;5056030;28;20033;-69
2022/08/11 05:05:41;;;;;;;3.55;3.20;;;;;;;;;;5053602;28;20487;-69
2022/08/11 05:08:22;;;;;;;4.15;3.50;;;;;;;;;;5054516;28;20033;-69
2022/08/11 05:10:56;;;;;;;4.05;3.38;;;;;;;;;;5056169;28;20029;-69
2022/08/11 05:36:34;;;;;;;3.30;2.90;;;;;;;;;;5055655;28;20032;-69
2022/08/11 05:58:24;;;;;;;2.22;1.70;;;;;;;;;;5055246;28;20025;-69
2022/08/11 06:00:51;;;;;;;2.30;2.05;;;;;;;;;;5054694;28;20013;-69
2022/08/11 06:03:25;;;;;;;1.83;1.73;;;;;;;;;;5054563;28;20033;-69
2022/08/11 06:05:51;;;;;;;4.20;2.35;;;;;;;;;;5055113;28;20445;-69
2022/08/11 06:08:17;;;;;;;2.40;2.10;;;;;;;;;;5054818;28;20021;-69
2022/08/11 06:10:43;;;;;;;2.28;2.08;;;;;;;;;;5054445;28;20040;-69
2022/08/11 06:13:09;;;;;;;4.30;2.30;;;;;;;;;;5054714;28;20032;-69
2022/08/11 06:15:45;;;;;;;2.28;2.08;;;;;;;;;;5054023;28;20029;-69
2022/08/11 06:18:11;;;;;;;2.83;2.00;;;;;;;;;;5054375;28;20032;-69
2022/08/11 06:20:50;;;;;;;3.20;2.13;;;;;;;;;;5053412;28;20021;-69
2022/08/11 06:23:18;;;;;;;2.85;1.80;;;;;;;;;;5052978;28;20472;-69
2022/08/11 06:25:44;;;;;;;3.22;2.20;;;;;;;;;;5054222;28;20032;-69
2022/08/11 06:28:11;;;;;;;3.22;1.90;;;;;;;;;;5054443;28;20029;-69
2022/08/11 06:30:39;;;;;;;2.88;1.85;;;;;;;;;;5054114;28;20020;-69
2022/08/11 06:33:14;;;;;;;2.20;2.08;;;;;;;;;;5054372;28;20033;-69
2022/08/11 06:35:49;;;;;;;1.95;1.83;;;;;;;;;;5054224;28;20427;-69
2022/08/11 06:38:24;;;;;;;1.67;1.58;;;;;;;;;;5054253;28;20033;-69
2022/08/11 06:43:54;;;;;;;2.20;1.83;;;;;;;;;;5054142;28;20032;-69
2022/08/11 06:46:25;;;;;;;2.30;2.10;;;;;;;;;;5054103;28;20033;-69
2022/08/11 06:48:52;;;;;;;1.98;1.88;;;;;;;;;;5054088;28;20055;-69
2022/08/11 06:51:18;;;;;;;2.10;1.90;;;;;;;;;;5054062;28;20076;-69
2022/08/11 06:53:45;;;;;;;3.83;1.60;;;;;;;;;;5052840;28;20496;-69
2022/08/11 07:01:46;;;;;;;2.10;1.90;;;;;;;;;;5054180;28;20029;-69
2022/08/11 07:04:14;;;;;;;1.85;1.70;;;;;;;;;;5054187;28;20025;-69
2022/08/11 07:15:41;;;;;;;2.25;1.63;;;;;;;;;;5053425;28;20025;-69
2022/08/11 07:29:59;;;;;;;2.45;1.70;;;;;;;;;;5057764;28;20025;-69
2022/08/11 07:32:29;;;;;;;3.25;1.80;;;;;;;;;;5057486;28;20028;-70
2022/08/11 07:34:57;;;;;;;13.82;1.70;;;;;;;;;;5057372;28;20032;-69
2022/08/11 07:37:23;;;;;;;1.58;1.48;;;;;;;;;;5057923;28;20385;-69
2022/08/11 07:39:49;;;;;;;2.60;2.40;;;;;;;;;;5039541;28;20052;-69
2022/08/11 07:42:17;;;;;;;2.08;1.77;;;;;;;;;;5057299;28;20531;-69
2022/08/11 07:52:57;;;;;;;2.22;1.63;;;;;;;;;;5056944;28;20033;-69
2022/08/11 07:55:26;;;;;;;4.55;1.75;;;;;;;;;;5056991;28;20033;-69
2022/08/11 08:20:01;;;;;;;3.20;1.90;;;;;;;;;;5056570;28;20484;-69
2022/08/11 08:22:26;;;;;;;2.75;1.60;;;;;;;;;;5055308;28;20063;-69
2022/08/11 08:24:54;;;;;;;2.35;1.85;;;;;;;;;;5056546;28;20395;-69
2022/08/11 08:27:19;;;;;;;2.03;1.83;;;;;;;;;;5056774;28;20096;-69
2022/08/11 08:32:31;;;;;;;1.90;1.60;;;;;;;;;;5056633;28;20083;-69
2022/08/11 08:34:57;;;;;;;4.35;1.50;;;;;;;;;;5056258;28;20025;-69
2022/08/11 08:37:23;;;;;;;2.03;1.60;;;;;;;;;;5054990;28;20400;-69
2022/08/11 08:39:49;;;;;;;2.55;1.60;;;;;;;;;;5056150;28;20103;-69
2022/08/11 08:42:19;;;;;;;1.70;1.60;;;;;;;;;;5056479;28;20105;-69
2022/08/11 08:44:46;;;;;;;3.17;2.08;;;;;;;;;;5056132;28;20049;-70
2022/08/11 08:47:15;;;;;;;1.67;1.45;;;;;;;;;;5056373;28;20031;-70
2022/08/11 08:49:48;;;;;;;2.90;1.50;;;;;;;;;;5056347;28;20037;-70
2022/08/11 08:52:15;;;;;;;1.50;1.40;;;;;;;;;;5054743;28;20318;-69
2022/08/11 08:54:42;;;;;;;2.17;1.63;;;;;;;;;;5055863;28;20164;-69
2022/08/11 08:57:08;;;;;;;1.42;1.30;;;;;;;;;;5056443;28;20022;-69
2022/08/11 08:59:38;;;;;;;3.30;1.50;;;;;;;;;;5056118;28;20163;-70
2022/08/11 09:02:04;;;;;;;2.67;1.40;;;;;;;;;;5056096;28;20025;-69
2022/08/11 09:04:30;;;;;;;1.92;1.60;;;;;;;;;;5056106;28;20032;-69
2022/08/11 09:06:58;;;;;;;3.03;1.55;;;;;;;;;;5055725;28;20035;-69
2022/08/11 09:09:25;;;;;;;3.00;1.85;;;;;;;;;;5054439;28;20017;-69
2022/08/11 09:11:54;;;;;;;2.00;1.63;;;;;;;;;;5055942;28;20032;-69
2022/08/11 09:14:24;;;;;;;2.25;1.40;;;;;;;;;;5055891;28;20044;-69
2022/08/11 09:16:50;;;;;;;1.60;1.50;;;;;;;;;;5055522;28;20040;-69
2022/08/11 09:19:16;;;;;;;3.17;1.33;;;;;;;;;;5055751;28;20042;-69
2022/08/11 09:21:44;;;;;;;5.50;1.30;;;;;;;;;;5055821;28;20040;-69
2022/08/11 09:27:02;;;;;;;1.40;1.15;;;;;;;;;;5055340;28;20072;-69
2022/08/11 09:29:31;;;;;;;1.50;1.30;;;;;;;;;;5055300;28;20029;-69
2022/08/11 09:31:57;;;;;;;2.17;1.40;;;;;;;;;;5054000;28;20106;-69
2022/08/11 09:34:25;;;;;;;1.20;1.10;;;;;;;;;;5055217;28;20029;-69
2022/08/11 09:42:20;;;;;;;1.35;1.10;;;;;;;;;;5055327;28;20032;-69
2022/08/11 09:44:49;;;;;;;1.40;1.30;;;;;;;;;;5055302;28;20135;-69
2022/08/11 09:47:25;;;;;;;2.10;1.00;;;;;;;;;;5055244;28;20117;-69
2022/08/11 09:50:00;;;;;;;2.92;0.85;;;;;;;;;;5054635;28;20479;-69
2022/08/11 09:52:26;;;;;;;0.60;0.60;;;;;;;;;;5054818;28;20044;-69
2022/08/11 09:54:52;;;;;;;0.85;0.65;;;;;;;;;;5055003;28;20376;-69
2022/08/11 10:00:04;;;;;;;2.15;0.95;;;;;;;;;;5054969;28;20047;-69
2022/08/11 10:02:29;;;;;;;1.08;0.77;;;;;;;;;;5054690;28;20017;-70
2022/08/11 10:07:00;;;;;;;1.13;0.80;;;;;;;;;;5054907;28;20074;-69
2022/08/11 10:07:49;;;;;;;2.30;0.90;;;;;;;;;;5054508;28;20037;-69
2022/08/11 10:10:15;;;;;;;0.98;0.80;;;;;;;;;;5054767;28;20032;-69
2022/08/11 10:12:46;;;;;;;1.23;0.88;;;;;;;;;;5054484;28;20021;-69
2022/08/11 10:15:33;;;;;;;2.60;1.02;;;;;;;;;;5054656;28;20063;-69
2022/08/11 10:21:00;;;;;;;1.02;0.95;;;;;;;;;;5054846;28;20424;-69
2022/08/11 10:28:59;;;;;;;3.45;0.90;;;;;;;;;;5054159;28;20041;-69
2022/08/11 10:34:09;;;;;;;0.93;0.90;;;;;;;;;;5054626;28;20029;-69
2022/08/11 10:37:01;;;;;;;1.10;1.00;;;;;;;;;;5053965;28;20488;-69
2022/08/11 10:39:27;;;;;;;2.55;1.00;;;;;;;;;;5053093;28;20025;-69
2022/08/11 10:44:41;;;;;;;2.58;1.10;;;;;;;;;;5052629;28;20028;-70
2022/08/11 11:00:55;;;;;;;1.35;1.00;;;;;;;;;;5052247;28;20420;-69
2022/08/11 11:03:21;;;;;;;0.95;0.93;;;;;;;;;;5053236;28;20036;-69
2022/08/11 11:05:47;;;;;;;0.90;0.90;;;;;;;;;;5053929;28;20380;-69
2022/08/11 11:11:01;;;;;;;1.27;0.80;;;;;;;;;;5052261;28;20444;-69
2022/08/11 11:19:10;;;;;;;0.50;0.50;;;;;;;;;;5030916;28;20072;-69
2022/08/11 11:21:36;;;;;;;2.40;1.30;;;;;;;;;;5053732;28;20456;-69
2022/08/11 11:24:14;;;;;;;1.55;0.90;;;;;;;;;;5052172;28;20098;-69
2022/08/11 11:27:01;;;;;;;0.80;0.80;;;;;;;;;;5052273;28;20461;-69
2022/08/11 11:29:45;;;;;;;2.75;1.38;;;;;;;;;;5052496;28;20530;-69
2022/08/11 11:32:18;;;;;;;4.15;1.20;;;;;;;;;;5053643;28;20111;-69
2022/08/11 11:34:46;;;;;;;1.05;0.70;;;;;;;;;;5053238;28;20396;-69
2022/08/11 11:37:13;;;;;;;1.98;0.73;;;;;;;;;;5053719;28;20025;-69
2022/08/11 11:39:39;;;;;;;4.85;1.05;;;;;;;;;;5052021;28;20044;-69
2022/08/11 11:42:06;;;;;;;1.40;0.65;;;;;;;;;;5053295;28;20028;-69
2022/08/11 11:44:32;;;;;;;0.90;0.77;;;;;;;;;;5053524;28;20025;-70
2022/08/11 11:46:57;;;;;;;2.17;0.82;;;;;;;;;;5052304;28;20071;-70
2022/08/11 11:49:24;;;;;;;2.05;0.95;;;;;;;;;;5053187;28;20366;-69
2022/08/11 11:51:51;;;;;;;1.27;0.77;;;;;;;;;;5053327;28;20049;-69
2022/08/11 11:54:20;;;;;;;3.00;0.70;;;;;;;;;;5053130;28;20033;-69
2022/08/11 11:56:45;;;;;;;2.20;1.10;;;;;;;;;;5053617;28;20037;-69
2022/08/11 12:01:56;;;;;;;3.88;1.05;;;;;;;;;;5052061;28;20112;-73
2022/08/11 12:04:25;;;;;;;0.82;0.82;;;;;;;;;;5050701;28;20056;-69
2022/08/11 12:08:08;;;;;;;0.80;0.70;;;;;;;;;;5052758;28;20037;-68
2022/08/11 12:09:37;;;;;;;1.58;0.70;;;;;;;;;;5051457;28;20052;-71
2022/08/11 12:14:47;;;;;;;0.80;0.80;;;;;;;;;;5056047;28;20033;-71
2022/08/11 12:17:12;;;;;;;1.25;0.70;;;;;;;;;;5055670;28;20036;-71
2022/08/11 12:19:37;;;;;;;1.10;0.70;;;;;;;;;;5053301;28;20052;-74
2022/08/11 12:27:54;;;;;;;1.98;0.60;;;;;;;;;;5013269;28;20081;-70
2022/08/11 12:30:20;;;;;;;0.70;0.70;;;;;;;;;;4997099;28;20046;-70
2022/08/11 12:32:46;;;;;;;1.00;0.60;;;;;;;;;;5033683;28;20037;-70
2022/08/11 12:35:14;;;;;;;0.60;0.60;;;;;;;;;;5055250;28;20091;-67
2022/08/11 12:37:42;;;;;;;0.50;0.50;;;;;;;;;;5055003;28;20381;-68
2022/08/11 12:45:42;;;;;;;2.00;0.60;;;;;;;;;;5055883;28;20519;-74
2022/08/11 12:53:44;;;;;;;;;;;;;;;;;;5055853;28;20037;-65
2022/08/11 13:07:10;;;;;;;0.60;0.60;;;;;;;;;;5055587;28;20029;-65
2022/08/11 13:09:35;;;;;;;0.90;0.60;;;;;;;;;;5055203;28;20028;-65
2022/08/11 13:14:45;;;;;;;34.45;2.63;;;;;;;;;;5052981;28;20758;-78
2022/08/11 13:17:21;;;;;;;25.27;2.53;;;;;;;;;;5052269;28;20103;-67
2022/08/11 13:19:48;;;;;;;4.47;2.00;;;;;;;;;;5054483;28;20052;-70
2022/08/11 13:22:18;;;;;;;4.10;1.60;;;;;;;;;;5052755;28;20036;-69
2022/08/11 13:24:44;;;;;;;4.20;1.40;;;;;;;;;;5051223;28;20120;-69
2022/08/11 13:27:11;;;;;;;4.28;1.45;;;;;;;;;;5054400;28;20092;-68
2022/08/11 13:29:39;;;;;;;3.30;1.30;;;;;;;;;;5053096;28;20029;-68
2022/08/11 13:32:04;;;;;;;2.40;1.48;;;;;;;;;;5053412;28;20457;-68
2022/08/11 13:34:30;;;;;;;7.55;1.35;;;;;;;;;;5055189;28;20025;-68
2022/08/11 13:36:58;;;;;;;3.65;1.42;;;;;;;;;;5054247;28;20056;-68
2022/08/11 13:39:27;;;;;;;3.97;1.30;;;;;;;;;;5054492;28;20041;-68
2022/08/11 13:41:55;;;;;;;2.88;1.13;;;;;;;;;;5052758;28;20067;-68
2022/08/11 13:44:20;;;;;;;1.88;1.30;;;;;;;;;;5049734;28;20774;-68
2022/08/11 13:46:46;;;;;;;3.67;1.08;;;;;;;;;;5054921;28;20035;-69
2022/08/11 13:49:14;;;;;;;2.35;1.30;;;;;;;;;;5053947;28;20029;-68
2022/08/11 13:51:40;;;;;;;3.92;1.33;;;;;;;;;;5054811;28;20040;-68
2022/08/11 13:54:10;;;;;;;1.10;1.00;;;;;;;;;;5053699;28;20576;-68
2022/08/11 13:56:38;;;;;;;;;;;;;;;;;;5055459;28;20036;-68
2022/08/11 13:59:04;;;;;;;4.05;1.23;;;;;;;;;;5036961;28;20331;-68
2022/08/11 14:01:33;;;;;;;2.03;1.40;;;;;;;;;;5051769;28;20440;-68
2022/08/11 14:04:03;;;;;;;1.67;1.35;;;;;;;;;;5053034;28;20473;-68
2022/08/11 14:06:29;;;;;;;2.35;1.10;;;;;;;;;;5052958;28;20393;-68
2022/08/11 14:08:55;;;;;;;2.10;1.00;;;;;;;;;;5053435;28;20017;-68
2022/08/11 14:14:06;;;;;;;2.10;1.00;;;;;;;;;;5052344;28;20055;-68
2022/08/11 14:16:35;;;;;;;4.30;1.17;;;;;;;;;;5054132;28;20017;-68
2022/08/11 14:19:03;;;;;;;6.72;3.88;;;;;;;;;;5054418;28;20029;-68
2022/08/11 14:24:17;;;;;;;7.53;4.55;;;;;;;;;;5052993;28;20392;-68
2022/08/11 14:26:44;;;;;;;25.05;22.35;;;;;;;;;;5053092;28;20033;-69
2022/08/11 14:29:14;;;;;;;4.65;3.72;;;;;;;;;;5054211;28;20041;-67
2022/08/11 14:31:44;;;;;;;3.17;2.13;;;;;;;;;;5054481;28;20029;-68
2022/08/11 14:34:11;;;;;;;2.93;1.00;;;;;;;;;;5054728;28;20029;-68
2022/08/11 14:36:38;;;;;;;1.90;1.80;;;;;;;;;;5052975;28;20082;-68
2022/08/11 14:39:24;;;;;;;1.65;0.95;;;;;;;;;;5054358;28;20457;-68
2022/08/11 14:47:21;;;;;;;6.72;3.63;;;;;;;;;;5053930;28;20029;-68
2022/08/11 14:49:47;;;;;;;3.72;2.63;;;;;;;;;;5054143;28;20024;-68
2022/08/11 14:52:14;;;;;;;8.20;3.58;;;;;;;;;;5053698;28;20516;-68
2022/08/11 14:57:31;;;;;;;3.15;2.10;;;;;;;;;;5054009;28;20029;-68
2022/08/11 14:59:58;;;;;;;3.25;1.80;;;;;;;;;;5053096;28;20060;-68
2022/08/11 15:03:24;;;;;;;6.82;5.22;;;;;;;;;;5053925;28;20024;-68
2022/08/11 15:05:19;;;;;;;2.03;1.90;;;;;;;;;;5044607;28;20456;-68
2022/08/11 15:07:45;;;;;;;1.85;1.13;;;;;;;;;;5054160;28;20060;-68
2022/08/11 15:10:11;;;;;;;1.00;0.90;;;;;;;;;;5053856;28;20082;-68
2022/08/11 15:12:38;;;;;;;2.30;1.40;;;;;;;;;;5052388;28;20163;-68
2022/08/11 15:17:51;;;;;;;1.85;1.17;;;;;;;;;;5054022;28;20036;-68
2022/08/11 15:25:49;;;;;;;2.45;1.42;;;;;;;;;;5053665;28;20064;-68
2022/08/11 15:45:46;;;;;;;2.40;1.50;;;;;;;;;;5043436;28;20043;-68
2022/08/11 15:48:05;;;;;;;1.42;1.33;;;;;;;;;;5054096;28;20493;-68
2022/08/11 15:50:33;;;;;;;2.22;1.40;;;;;;;;;;5057500;28;20108;-68
2022/08/11 15:53:01;;;;;;;1.52;1.10;;;;;;;;;;5056940;28;20036;-69
2022/08/11 15:55:28;;;;;;;1.27;1.10;;;;;;;;;;5057005;28;20029;-68
2022/08/11 16:06:10;;;;;;;1.05;1.05;;;;;;;;;;5057454;28;20103;-68
2022/08/11 16:08:36;;;;;;;1.05;0.90;;;;;;;;;;5056890;28;20483;-68
2022/08/11 16:11:02;;;;;;;2.00;1.50;;;;;;;;;;5056807;28;20107;-68
2022/08/11 16:16:13;;;;;;;1.35;1.25;;;;;;;;;;5055400;28;20033;-68
2022/08/11 16:18:50;;;;;;;2.50;1.70;;;;;;;;;;5056683;28;20385;-68
2022/08/11 16:21:24;;;;;;;5.47;4.07;;;;;;;;;;5056865;28;20078;-69
2022/08/11 16:23:55;;;;;;;2.00;1.50;;;;;;;;;;5056625;28;20029;-68
2022/08/11 16:26:22;;;;;;;9.38;5.25;;;;;;;;;;5056641;28;20025;-68
2022/08/11 16:28:50;;;;;;;11.70;5.97;;;;;;;;;;5057157;28;20368;-68
2022/08/11 16:31:16;;;;;;;1.52;1.42;;;;;;;;;;5055302;28;20025;-68
2022/08/11 16:33:42;;;;;;;3.42;1.42;;;;;;;;;;5056727;28;20032;-68
2022/08/11 16:38:57;;;;;;;3.17;1.80;;;;;;;;;;5056302;28;20465;-68
2022/08/11 16:46:58;;;;;;;3.78;1.42;;;;;;;;;;5036476;28;20470;-68
2022/08/11 16:49:37;;;;;;;3.60;1.65;;;;;;;;;;5035126;28;20026;-68
2022/08/11 16:52:04;;;;;;;1.63;1.52;;;;;;;;;;5034145;28;20042;-68
2022/08/11 16:54:31;;;;;;;2.72;2.53;;;;;;;;;;5034842;28;20375;-68
2022/08/11 16:59:12;;;;;;;2.45;2.25;;;;;;;;;;5035955;28;20469;-68
2022/08/11 16:59:43;;;;;;;3.83;3.33;;;;;;;;;;5034886;28;20025;-68
2022/08/11 17:02:10;;;;;;;2.05;1.77;;;;;;;;;;5034642;28;20017;-68
2022/08/11 17:13:09;;;;;;;1.40;1.30;;;;;;;;;;5035969;28;20025;-69
2022/08/11 17:21:06;;;;;;;1.92;1.33;;;;;;;;;;5035820;28;20072;-68
2022/08/11 17:23:45;;;;;;;1.95;1.42;;;;;;;;;;5036116;28;20368;-68
2022/08/11 17:26:14;;;;;;;9.13;6.03;;;;;;;;;;5035758;28;20048;-68
2022/08/11 17:28:40;;;;;;;3.95;2.30;;;;;;;;;;5035470;28;20053;-68
2022/08/11 17:36:36;;;;;;;2.53;1.55;;;;;;;;;;5035459;28;20061;-68
2022/08/11 17:39:01;;;;;;;2.50;2.30;;;;;;;;;;5035554;28;20021;-68
2022/08/11 17:49:40;;;;;;;1.45;1.35;;;;;;;;;;5033733;28;20413;-68
2022/08/11 18:00:20;;;;;;;1.88;1.77;;;;;;;;;;5034827;28;20029;-68
2022/08/11 18:05:33;;;;;;;3.33;1.70;;;;;;;;;;5034338;28;20149;-68
